createdAt,value
2022-12-26T00:01:24.022Z,42.42
2022-12-26T00:06:27.805Z,52.42
2022-12-26T00:11:29.864Z,46.85
2022-12-26T00:16:31.763Z,44.25
2022-12-26T00:21:34.016Z,45.40
2022-12-26T00:26:36.214Z,46.38
2022-12-26T00:31:38.201Z,48.60
2022-12-26T00:36:40.225Z,43.33
2022-12-26T00:41:43.499Z,46.75
2022-12-26T00:46:45.236Z,43.63
2022-12-26T00:51:46.917Z,39.58
2022-12-26T00:56:48.911Z,41.85
2022-12-26T01:01:51.090Z,40.95
2022-12-26T01:06:52.796Z,47.75
2022-12-26T01:11:54.384Z,49.10
2022-12-26T01:16:56.068Z,45.08
2022-12-26T01:21:57.749Z,46.95
2022-12-26T01:26:59.323Z,40.60
2022-12-26T01:32:01.372Z,41.78
2022-12-26T01:37:03.027Z,42.88
2022-12-26T01:42:12.996Z,44.17
2022-12-26T01:47:15.800Z,44.70
2022-12-26T01:52:26.011Z,42.45
2022-12-26T01:57:42.695Z,46.40
2022-12-26T02:03:03.892Z,41.15
2022-12-26T02:08:11.777Z,41.65
2022-12-26T02:13:13.993Z,45.42
2022-12-26T02:18:15.875Z,49.53
2022-12-26T02:23:36.205Z,70.00
2022-12-26T02:29:30.539Z,77.65
2022-12-26T02:34:50.115Z,77.13
2022-12-26T02:40:12.668Z,68.30
2022-12-26T02:45:45.029Z,68.60
2022-12-26T02:51:08.419Z,63.95
2022-12-26T02:56:40.892Z,64.03
2022-12-26T03:02:05.763Z,65.63
2022-12-26T03:07:36.787Z,73.00
2022-12-26T03:13:12.643Z,76.85
2022-12-26T03:18:14.896Z,94.60
2022-12-26T03:23:18.786Z,76.53
2022-12-26T03:28:21.897Z,66.75
2022-12-26T03:33:49.303Z,113.90
2022-12-26T03:39:08.004Z,75.10
2022-12-26T03:44:58.900Z,119.93
2022-12-26T03:50:25.996Z,58.47
2022-12-26T03:56:26.072Z,175.90
2022-12-26T04:01:50.701Z,135.30
2022-12-26T04:07:24.552Z,63.47
2022-12-26T04:12:48.813Z,98.63
2022-12-26T04:18:16.853Z,73.53
2022-12-26T04:23:49.657Z,139.93
2022-12-26T04:29:10.492Z,65.47
2022-12-26T04:34:40.675Z,49.85
2022-12-26T04:45:08.830Z,53.47
2022-12-26T04:50:14.336Z,111.78
2022-12-26T04:55:18.084Z,67.15
2022-12-26T05:00:20.272Z,88.05
2022-12-26T05:05:40.830Z,67.85
2022-12-26T05:10:42.458Z,69.00
2022-12-26T05:16:03.002Z,219.10
2022-12-26T05:21:23.460Z,53.38
2022-12-26T05:26:43.805Z,42.50
2022-12-26T05:31:45.570Z,45.72
2022-12-26T05:36:56.505Z,45.05
2022-12-26T05:41:58.240Z,37.55
2022-12-26T05:46:59.907Z,49.88
2022-12-26T05:52:01.821Z,54.90
2022-12-26T05:57:04.003Z,51.53
2022-12-26T06:02:06.279Z,84.22
2022-12-26T06:07:08.091Z,54.15
2022-12-26T06:12:09.780Z,107.35
2022-12-26T06:17:11.439Z,75.95
2022-12-26T06:22:13.107Z,44.55
2022-12-26T06:27:14.814Z,47.10
2022-12-26T06:32:16.408Z,51.55
2022-12-26T06:37:18.209Z,54.13
2022-12-26T06:42:19.824Z,52.90
2022-12-26T06:47:21.565Z,42.75
2022-12-26T06:52:23.188Z,35.92
2022-12-26T06:57:24.782Z,42.92
2022-12-26T07:02:26.488Z,37.22
2022-12-26T07:07:28.155Z,35.58
2022-12-26T07:12:29.756Z,57.75
2022-12-26T07:17:31.639Z,48.47
2022-12-26T07:22:33.497Z,44.45
2022-12-26T07:27:35.105Z,48.58
2022-12-26T07:32:36.734Z,44.38
2022-12-26T07:37:38.422Z,51.83
2022-12-26T07:42:40.041Z,34.05
2022-12-26T07:47:41.681Z,35.70
2022-12-26T07:52:43.375Z,64.72
2022-12-26T07:57:49.417Z,41.10
2022-12-26T08:02:53.149Z,68.50
2022-12-26T08:07:54.825Z,47.05
2022-12-26T08:12:56.595Z,78.05
2022-12-26T08:17:58.204Z,50.70
2022-12-26T08:22:59.992Z,43.47
2022-12-26T08:28:02.555Z,41.05
2022-12-26T08:33:04.219Z,49.38
2022-12-26T08:38:06.808Z,65.88
2022-12-26T08:48:31.100Z,64.65
2022-12-26T08:53:35.825Z,72.53
2022-12-26T08:58:37.611Z,77.55
2022-12-26T09:03:41.029Z,98.30
2022-12-26T09:08:43.278Z,52.45
2022-12-26T09:13:45.915Z,41.00
2022-12-26T09:18:48.647Z,54.60
2022-12-26T09:23:51.091Z,66.65
2022-12-26T09:28:53.333Z,60.00
2022-12-26T09:33:55.667Z,52.83
2022-12-26T09:38:59.588Z,73.95
2022-12-26T09:44:28.121Z,57.95
2022-12-26T09:50:04.281Z,47.65
2022-12-26T09:55:45.924Z,48.88
2022-12-26T10:00:56.786Z,62.53
2022-12-26T10:06:16.834Z,41.95
2022-12-26T10:11:30.322Z,60.25
2022-12-26T10:16:36.499Z,44.03
2022-12-26T10:21:49.462Z,45.50
2022-12-26T10:26:56.883Z,35.90
2022-12-26T10:32:26.052Z,50.20
2022-12-26T10:37:40.273Z,46.00
2022-12-26T10:42:52.120Z,38.92
2022-12-26T10:47:54.740Z,47.65
2022-12-26T10:52:58.172Z,42.75
2022-12-26T10:58:10.230Z,45.97
2022-12-26T11:03:18.162Z,42.00
2022-12-26T11:08:28.486Z,43.30
2022-12-26T11:13:35.762Z,48.70
2022-12-26T11:18:48.174Z,37.03
2022-12-26T11:24:10.891Z,47.58
2022-12-26T11:29:20.620Z,43.45
2022-12-26T11:34:34.596Z,39.47
2022-12-26T11:39:37.873Z,39.38
2022-12-26T11:44:44.935Z,42.70
2022-12-26T11:50:04.731Z,38.13
2022-12-26T11:55:24.799Z,39.30
2022-12-26T12:00:27.311Z,34.17
2022-12-26T12:05:28.841Z,34.25
2022-12-26T12:10:47.919Z,39.22
2022-12-26T12:16:15.091Z,34.63
2022-12-26T12:21:53.983Z,35.33
2022-12-26T12:27:04.600Z,34.28
2022-12-26T12:32:24.351Z,32.47
2022-12-26T12:38:14.151Z,33.80
2022-12-26T12:43:26.991Z,31.27
2022-12-26T12:49:05.399Z,31.38
2022-12-26T12:54:25.985Z,29.02
2022-12-26T12:59:46.201Z,30.02
2022-12-26T13:04:54.594Z,31.40
2022-12-26T13:10:03.834Z,29.70
2022-12-26T13:15:42.956Z,29.10
2022-12-26T13:20:49.126Z,27.23
2022-12-26T13:26:27.141Z,27.17
2022-12-26T13:31:39.924Z,26.33
2022-12-26T13:36:50.683Z,27.52
2022-12-26T13:42:16.475Z,25.60
2022-12-26T13:47:31.711Z,24.67
2022-12-26T13:52:41.758Z,25.02
2022-12-26T13:57:45.079Z,24.65
2022-12-26T14:03:21.618Z,25.40
2022-12-26T14:09:05.047Z,24.05
2022-12-26T14:14:26.865Z,21.65
2022-12-26T14:19:49.888Z,24.67
2022-12-26T14:24:54.490Z,22.70
2022-12-26T14:30:23.509Z,25.73
2022-12-26T14:35:56.034Z,21.00
2022-12-26T14:41:31.056Z,25.13
2022-12-26T14:46:32.843Z,24.02
2022-12-26T14:51:37.976Z,25.95
2022-12-26T14:56:39.884Z,23.17
2022-12-26T15:01:41.702Z,21.60
2022-12-26T15:06:56.188Z,21.50
2022-12-26T15:12:00.525Z,22.13
2022-12-26T15:17:11.099Z,20.55
2022-12-26T15:22:52.890Z,22.17
2022-12-26T15:27:57.546Z,18.65
2022-12-26T15:33:16.860Z,21.33
2022-12-26T15:43:40.284Z,20.27
2022-12-26T15:48:57.527Z,22.00
2022-12-26T15:54:56.069Z,20.20
2022-12-26T16:00:10.800Z,24.25
2022-12-26T16:05:31.346Z,22.25
2022-12-26T16:10:36.034Z,18.65
2022-12-26T16:15:52.064Z,26.52
2022-12-26T16:21:16.193Z,19.83
2022-12-26T16:26:28.921Z,20.95
2022-12-26T16:31:31.272Z,22.13
2022-12-26T16:36:37.231Z,20.70
2022-12-26T16:42:01.723Z,23.15
2022-12-26T16:47:08.194Z,31.88
2022-12-26T16:52:31.545Z,29.73
2022-12-26T16:57:36.330Z,20.38
2022-12-26T17:02:38.361Z,23.70
2022-12-26T17:07:44.891Z,25.27
2022-12-26T17:12:47.788Z,24.40
2022-12-26T17:17:49.778Z,23.35
2022-12-26T17:22:55.868Z,22.10
2022-12-26T17:28:09.841Z,23.08
2022-12-26T17:33:26.759Z,18.92
2022-12-26T17:38:29.429Z,20.02
2022-12-26T17:43:39.340Z,20.25
2022-12-26T17:48:41.916Z,20.95
2022-12-26T17:53:48.947Z,25.30
2022-12-26T17:58:51.019Z,27.77
2022-12-26T18:03:52.961Z,21.40
2022-12-26T18:08:54.700Z,22.42
2022-12-26T18:13:56.363Z,23.25
2022-12-26T18:18:57.971Z,23.23
2022-12-26T18:23:59.599Z,25.92
2022-12-26T18:29:02.196Z,25.27
2022-12-26T18:34:03.892Z,22.25
2022-12-26T18:39:05.962Z,25.13
2022-12-26T18:44:07.877Z,23.85
2022-12-26T18:49:10.017Z,28.00
2022-12-26T18:54:11.670Z,24.40
2022-12-26T18:59:13.438Z,25.92
2022-12-26T19:04:16.407Z,28.10
2022-12-26T19:09:18.102Z,25.10
2022-12-26T19:14:21.493Z,28.90
2022-12-26T19:19:26.592Z,27.55
2022-12-26T19:24:28.282Z,29.17
2022-12-26T19:29:30.011Z,27.65
2022-12-26T19:34:31.613Z,25.40
2022-12-26T19:39:33.420Z,25.42
2022-12-26T19:44:35.058Z,30.63
2022-12-26T19:49:36.715Z,26.17
2022-12-26T19:54:38.487Z,25.50
2022-12-26T19:59:40.095Z,28.42
2022-12-26T20:04:41.900Z,17.15
2022-12-26T20:09:44.162Z,6.45
2022-12-26T20:14:45.922Z,8.27
2022-12-26T20:19:48.082Z,1.48
2022-12-26T20:24:49.700Z,0.70
2022-12-26T20:29:51.301Z,1.75
2022-12-26T20:34:52.925Z,1.42
2022-12-26T20:39:54.777Z,0.65
2022-12-26T20:44:56.368Z,2.47
2022-12-26T20:49:58.233Z,1.02
2022-12-26T20:54:59.916Z,1.92
2022-12-26T21:00:01.818Z,0.70
2022-12-26T21:05:04.201Z,0.50
2022-12-26T21:10:06.782Z,2.35
2022-12-26T21:15:10.445Z,1.90
2022-12-26T21:20:13.949Z,0.85
2022-12-26T21:25:15.653Z,1.00
2022-12-26T21:30:18.915Z,3.85
2022-12-26T21:35:20.759Z,0.25
2022-12-26T21:40:24.100Z,4.57
2022-12-26T21:45:26.667Z,1.92
2022-12-26T21:50:28.272Z,0.82
2022-12-26T21:55:31.198Z,0.32
2022-12-26T22:00:34.956Z,0.30
2022-12-26T22:05:40.014Z,1.85
2022-12-26T22:11:04.521Z,0.47
2022-12-26T22:16:08.925Z,0.10
2022-12-26T22:21:19.463Z,0.77
2022-12-26T22:26:23.251Z,0.10
2022-12-26T22:31:32.146Z,0.63
2022-12-26T22:41:37.429Z,0.43
2022-12-26T22:46:39.537Z,0.80
2022-12-26T22:51:41.847Z,0.10
2022-12-26T22:56:43.438Z,0.17
2022-12-26T23:01:45.142Z,0.15
2022-12-26T23:06:47.176Z,0.13
2022-12-26T23:12:11.635Z,0.30
2022-12-26T23:17:36.602Z,0.20
2022-12-26T23:22:38.444Z,0.40
2022-12-26T23:27:58.613Z,0.10
2022-12-26T23:33:00.469Z,0.30
2022-12-26T23:38:02.104Z,0.15
2022-12-26T23:43:03.807Z,0.80
2022-12-26T23:48:05.468Z,0.05
2022-12-26T23:53:07.276Z,1.45
2022-12-26T23:58:09.113Z,0.22
